createdAt,value
2023-01-03T00:00:32.978Z,0.00
2023-01-03T00:01:32.745Z,0.00
2023-01-03T00:02:33.088Z,0.00
2023-01-03T00:03:32.724Z,0.00
2023-01-03T00:04:32.751Z,0.00
2023-01-03T00:05:32.707Z,0.00
2023-01-03T00:06:32.723Z,0.00
2023-01-03T00:07:32.683Z,0.00
2023-01-03T00:08:32.663Z,0.00
2023-01-03T00:09:32.662Z,0.00
2023-01-03T00:10:32.640Z,0.00
2023-01-03T00:11:32.728Z,0.00
2023-01-03T00:12:32.634Z,0.00
2023-01-03T00:13:32.612Z,0.00
2023-01-03T00:14:32.605Z,0.00
2023-01-03T00:15:32.592Z,0.00
2023-01-03T00:16:32.648Z,0.00
2023-01-03T00:17:32.615Z,0.00
2023-01-03T00:18:32.640Z,0.00
2023-01-03T00:19:32.781Z,0.00
2023-01-03T00:20:32.542Z,0.00
2023-01-03T00:21:32.530Z,0.00
2023-01-03T00:22:32.539Z,0.00
2023-01-03T00:23:32.508Z,0.00
2023-01-03T00:24:32.500Z,0.00
2023-01-03T00:25:32.486Z,0.00
2023-01-03T00:26:32.502Z,0.00
2023-01-03T00:27:32.474Z,0.00
2023-01-03T00:28:32.455Z,0.00
2023-01-03T00:29:32.442Z,0.00
2023-01-03T00:30:32.532Z,0.00
2023-01-03T00:31:32.432Z,0.00
2023-01-03T00:32:32.409Z,0.00
2023-01-03T00:33:32.426Z,0.00
2023-01-03T00:34:32.427Z,0.00
2023-01-03T00:35:32.584Z,0.00
2023-01-03T00:36:32.372Z,0.00
2023-01-03T00:37:32.373Z,0.00
2023-01-03T00:38:32.362Z,0.00
2023-01-03T00:39:32.347Z,0.00
2023-01-03T00:40:32.337Z,0.00
2023-01-03T00:41:32.333Z,0.00
2023-01-03T00:42:32.330Z,0.00
2023-01-03T00:43:32.330Z,0.00
2023-01-03T00:44:32.286Z,0.00
2023-01-03T00:45:35.511Z,0.00
2023-01-03T00:46:32.353Z,0.00
2023-01-03T00:47:32.255Z,0.00
2023-01-03T00:48:32.247Z,0.00
2023-01-03T00:49:32.241Z,0.00
2023-01-03T00:50:32.244Z,0.00
2023-01-03T00:51:32.207Z,0.00
2023-01-03T00:52:32.200Z,0.00
2023-01-03T00:53:32.194Z,0.00
2023-01-03T00:54:32.190Z,0.00
2023-01-03T00:55:32.166Z,0.00
2023-01-03T00:56:32.193Z,0.00
2023-01-03T00:57:32.163Z,0.00
2023-01-03T00:58:32.153Z,0.00
2023-01-03T00:59:32.124Z,0.00
2023-01-03T01:00:32.116Z,0.00
2023-01-03T01:01:32.292Z,0.00
2023-01-03T01:02:32.354Z,0.00
2023-01-03T01:03:32.162Z,0.00
2023-01-03T01:04:32.074Z,0.00
2023-01-03T01:05:32.265Z,0.00
2023-01-03T01:06:32.074Z,0.00
2023-01-03T01:07:32.039Z,0.00
2023-01-03T01:08:32.031Z,0.00
2023-01-03T01:09:32.040Z,0.00
2023-01-03T01:10:32.014Z,0.00
2023-01-03T01:11:31.999Z,0.00
2023-01-03T01:12:31.985Z,0.00
2023-01-03T01:13:32.181Z,0.00
2023-01-03T01:14:31.964Z,0.00
2023-01-03T01:15:32.059Z,0.00
2023-01-03T01:16:32.003Z,0.00
2023-01-03T01:17:31.936Z,0.00
2023-01-03T01:18:31.944Z,0.00
2023-01-03T01:19:31.912Z,0.00
2023-01-03T01:20:31.902Z,0.00
2023-01-03T01:21:31.908Z,0.00
2023-01-03T01:22:31.904Z,0.00
2023-01-03T01:23:31.865Z,0.00
2023-01-03T01:24:31.876Z,0.00
2023-01-03T01:25:31.887Z,0.00
2023-01-03T01:26:31.902Z,0.00
2023-01-03T01:27:31.832Z,0.00
2023-01-03T01:28:32.030Z,0.00
2023-01-03T01:29:31.832Z,0.00
2023-01-03T01:30:32.014Z,0.00
2023-01-03T01:31:31.943Z,0.00
2023-01-03T01:32:31.775Z,0.00
2023-01-03T01:33:31.763Z,0.00
2023-01-03T01:34:31.767Z,0.00
2023-01-03T01:35:31.757Z,0.00
2023-01-03T01:36:31.973Z,0.00
2023-01-03T01:37:31.725Z,0.00
2023-01-03T01:38:32.145Z,0.00
2023-01-03T01:39:31.693Z,0.00
2023-01-03T01:40:31.691Z,0.00
2023-01-03T01:41:31.678Z,0.00
2023-01-03T01:42:31.659Z,0.00
2023-01-03T01:43:31.646Z,0.00
2023-01-03T01:44:31.637Z,0.00
2023-01-03T01:45:31.828Z,0.00
2023-01-03T01:46:31.637Z,0.00
2023-01-03T01:47:31.650Z,0.00
2023-01-03T01:48:31.594Z,0.00
2023-01-03T01:49:31.581Z,0.00
2023-01-03T01:50:31.602Z,0.00
2023-01-03T01:51:31.608Z,0.00
2023-01-03T01:52:31.574Z,0.00
2023-01-03T01:53:31.549Z,0.00
2023-01-03T01:54:31.559Z,0.00
2023-01-03T01:55:31.520Z,0.00
2023-01-03T01:56:31.711Z,0.00
2023-01-03T01:57:31.500Z,0.00
2023-01-03T01:58:31.489Z,0.00
2023-01-03T01:59:31.473Z,0.00
2023-01-03T02:00:31.488Z,0.00
2023-01-03T02:01:31.591Z,0.00
2023-01-03T02:02:31.564Z,0.00
2023-01-03T02:03:31.450Z,0.00
2023-01-03T02:04:31.417Z,0.00
2023-01-03T02:05:31.405Z,0.00
2023-01-03T02:06:31.397Z,0.00
2023-01-03T02:07:31.386Z,0.00
2023-01-03T02:08:31.372Z,0.00
2023-01-03T02:09:31.387Z,0.00
2023-01-03T02:10:31.376Z,0.00
2023-01-03T02:11:31.337Z,0.00
2023-01-03T02:12:31.334Z,0.00
2023-01-03T02:13:31.346Z,0.00
2023-01-03T02:14:31.316Z,0.00
2023-01-03T02:15:31.295Z,0.00
2023-01-03T02:16:31.402Z,0.00
2023-01-03T02:17:31.274Z,0.00
2023-01-03T02:18:31.266Z,0.00
2023-01-03T02:19:31.251Z,0.00
2023-01-03T02:20:31.252Z,0.00
2023-01-03T02:21:31.238Z,0.00
2023-01-03T02:22:31.224Z,0.00
2023-01-03T02:23:31.426Z,0.00
2023-01-03T02:24:31.211Z,0.00
2023-01-03T02:25:31.187Z,0.00
2023-01-03T02:26:31.198Z,0.00
2023-01-03T02:27:31.177Z,0.00
2023-01-03T02:28:31.156Z,0.00
2023-01-03T02:29:31.144Z,0.00
2023-01-03T02:30:31.131Z,0.00
2023-01-03T02:31:31.212Z,0.00
2023-01-03T02:32:31.110Z,0.00
2023-01-03T02:33:31.110Z,0.00
2023-01-03T02:34:31.093Z,0.00
2023-01-03T02:35:31.077Z,0.00
2023-01-03T02:36:31.071Z,0.00
2023-01-03T02:37:31.058Z,0.00
2023-01-03T02:38:31.049Z,0.00
2023-01-03T02:39:31.031Z,0.00
2023-01-03T02:40:31.025Z,0.00
2023-01-03T02:41:31.012Z,0.00
2023-01-03T02:42:31.025Z,0.00
2023-01-03T02:43:30.988Z,0.00
2023-01-03T02:44:30.992Z,0.00
2023-01-03T02:45:30.964Z,0.00
2023-01-03T02:46:31.066Z,0.00
2023-01-03T02:47:30.943Z,0.00
2023-01-03T02:48:30.930Z,0.00
2023-01-03T02:49:30.917Z,0.00
2023-01-03T02:50:30.930Z,0.00
2023-01-03T02:51:30.893Z,0.00
2023-01-03T02:52:30.913Z,0.00
2023-01-03T02:53:30.887Z,0.00
2023-01-03T02:54:30.887Z,0.00
2023-01-03T02:55:30.908Z,0.00
2023-01-03T02:56:30.844Z,0.00
2023-01-03T02:57:30.829Z,0.00
2023-01-03T02:58:30.905Z,0.00
2023-01-03T02:59:30.805Z,0.00
2023-01-03T03:00:30.821Z,0.00
2023-01-03T03:01:30.926Z,0.00
2023-01-03T03:02:31.258Z,0.00
2023-01-03T03:03:30.784Z,0.00
2023-01-03T03:04:30.749Z,0.00
2023-01-03T03:05:30.739Z,0.00
2023-01-03T03:06:30.929Z,0.00
2023-01-03T03:07:30.717Z,0.00
2023-01-03T03:08:30.717Z,0.00
2023-01-03T03:09:30.698Z,0.00
2023-01-03T03:10:30.680Z,0.00
2023-01-03T03:11:30.667Z,0.00
2023-01-03T03:12:30.667Z,0.00
2023-01-03T03:13:30.648Z,0.00
2023-01-03T03:14:30.779Z,0.00
2023-01-03T03:15:30.628Z,0.00
2023-01-03T03:16:30.685Z,0.00
2023-01-03T03:17:30.629Z,0.00
2023-01-03T03:18:30.605Z,0.00
2023-01-03T03:19:30.577Z,0.00
2023-01-03T03:20:30.566Z,0.00
2023-01-03T03:21:30.572Z,0.00
2023-01-03T03:22:30.547Z,0.00
2023-01-03T03:23:30.535Z,0.00
2023-01-03T03:24:30.522Z,0.00
2023-01-03T03:25:30.510Z,0.00
2023-01-03T03:26:30.706Z,0.00
2023-01-03T03:27:30.693Z,0.00
2023-01-03T03:28:30.477Z,0.00
2023-01-03T03:29:30.466Z,0.00
2023-01-03T03:30:30.470Z,0.00
2023-01-03T03:31:30.576Z,0.00
2023-01-03T03:32:30.429Z,0.00
2023-01-03T03:33:30.417Z,0.00
2023-01-03T03:34:30.609Z,0.00
2023-01-03T03:35:30.393Z,0.00
2023-01-03T03:36:30.385Z,0.00
2023-01-03T03:37:30.373Z,0.00
2023-01-03T03:38:30.359Z,0.00
2023-01-03T03:39:30.346Z,0.00
2023-01-03T03:40:30.341Z,0.00
2023-01-03T03:41:30.323Z,0.00
2023-01-03T03:42:30.320Z,0.00
2023-01-03T03:43:30.313Z,0.00
2023-01-03T03:44:30.301Z,0.00
2023-01-03T03:45:30.290Z,0.00
2023-01-03T03:46:30.548Z,0.00
2023-01-03T03:47:30.276Z,0.00
2023-01-03T03:48:30.285Z,0.00
2023-01-03T03:49:30.245Z,0.00
2023-01-03T03:50:30.216Z,0.00
2023-01-03T03:51:30.209Z,0.00
2023-01-03T03:52:30.218Z,0.00
2023-01-03T03:53:30.186Z,0.00
2023-01-03T03:54:30.174Z,0.00
2023-01-03T03:55:30.165Z,0.00
2023-01-03T03:56:30.149Z,0.00
2023-01-03T03:57:30.141Z,0.00
2023-01-03T03:58:30.146Z,0.00
2023-01-03T03:59:30.154Z,0.00
2023-01-03T04:00:30.122Z,0.00
2023-01-03T04:01:30.278Z,0.00
2023-01-03T04:02:30.235Z,0.00
2023-01-03T04:03:30.219Z,0.00
2023-01-03T04:04:30.269Z,0.00
2023-01-03T04:05:30.050Z,0.00
2023-01-03T04:06:30.045Z,0.00
2023-01-03T04:07:30.022Z,0.00
2023-01-03T04:08:30.018Z,0.00
2023-01-03T04:09:30.026Z,0.00
2023-01-03T04:10:34.123Z,0.00
2023-01-03T04:11:29.976Z,0.00
2023-01-03T04:12:29.968Z,0.00
2023-01-03T04:13:30.158Z,0.00
2023-01-03T04:14:29.939Z,0.00
2023-01-03T04:15:29.978Z,0.00
2023-01-03T04:16:29.990Z,0.00
2023-01-03T04:17:29.930Z,0.00
2023-01-03T04:18:30.155Z,0.00
2023-01-03T04:19:29.914Z,0.00
2023-01-03T04:20:29.878Z,0.00
2023-01-03T04:21:29.857Z,0.00
2023-01-03T04:22:29.913Z,0.00
2023-01-03T04:23:29.835Z,0.00
2023-01-03T04:24:29.828Z,0.00
2023-01-03T04:25:29.849Z,0.00
2023-01-03T04:26:30.030Z,0.00
2023-01-03T04:27:29.788Z,0.00
2023-01-03T04:28:29.776Z,0.00
2023-01-03T04:29:31.729Z,0.00
2023-01-03T04:30:29.750Z,0.00
2023-01-03T04:31:29.784Z,0.00
2023-01-03T04:32:29.760Z,0.00
2023-01-03T04:33:29.741Z,0.00
2023-01-03T04:34:29.824Z,0.00
2023-01-03T04:35:29.689Z,0.00
2023-01-03T04:36:29.689Z,0.00
2023-01-03T04:37:29.917Z,0.00
2023-01-03T04:38:29.681Z,0.00
2023-01-03T04:39:29.715Z,0.00
2023-01-03T04:40:29.653Z,0.00
2023-01-03T04:41:29.641Z,0.00
2023-01-03T04:42:29.612Z,0.00
2023-01-03T04:43:29.615Z,0.00
2023-01-03T04:44:29.791Z,0.00
2023-01-03T04:45:29.632Z,0.00
2023-01-03T04:46:29.567Z,0.00
2023-01-03T04:47:29.578Z,0.00
2023-01-03T04:48:29.553Z,0.00
2023-01-03T04:49:29.554Z,0.00
2023-01-03T04:50:29.585Z,0.00
2023-01-03T04:51:29.517Z,0.00
2023-01-03T04:52:29.507Z,0.00
2023-01-03T04:53:29.487Z,0.00
2023-01-03T04:54:29.470Z,0.00
2023-01-03T04:55:29.487Z,0.00
2023-01-03T04:56:29.451Z,0.00
2023-01-03T04:57:29.441Z,0.00
2023-01-03T04:58:29.440Z,0.00
2023-01-03T04:59:29.412Z,0.00
2023-01-03T05:00:29.448Z,0.00
2023-01-03T05:01:29.635Z,0.00
2023-01-03T05:02:29.488Z,0.00
2023-01-03T05:03:29.363Z,0.00
2023-01-03T05:04:29.434Z,0.00
2023-01-03T05:05:29.364Z,0.00
2023-01-03T05:06:29.428Z,0.00
2023-01-03T05:07:29.329Z,0.00
2023-01-03T05:08:29.339Z,0.00
2023-01-03T05:09:29.296Z,0.00
2023-01-03T05:10:29.306Z,0.00
2023-01-03T05:11:29.274Z,0.00
2023-01-03T05:12:29.314Z,0.00
2023-01-03T05:13:29.347Z,0.00
2023-01-03T05:14:29.231Z,0.00
2023-01-03T05:15:29.224Z,0.00
2023-01-03T05:16:29.309Z,0.00
2023-01-03T05:17:29.245Z,0.00
2023-01-03T05:18:29.215Z,0.00
2023-01-03T05:19:29.177Z,0.00
2023-01-03T05:20:29.191Z,0.00
2023-01-03T05:21:29.158Z,0.00
2023-01-03T05:22:29.193Z,0.00
2023-01-03T05:23:29.136Z,0.00
2023-01-03T05:24:29.115Z,0.00
2023-01-03T05:25:29.106Z,0.00
2023-01-03T05:26:29.092Z,0.00
2023-01-03T05:27:29.115Z,0.00
2023-01-03T05:28:29.082Z,0.00
2023-01-03T05:29:29.100Z,0.00
2023-01-03T05:30:29.072Z,0.00
2023-01-03T05:31:29.140Z,0.00
2023-01-03T05:32:29.136Z,0.00
2023-01-03T05:33:29.048Z,0.00
2023-01-03T05:34:29.017Z,0.00
2023-01-03T05:35:29.027Z,0.00
2023-01-03T05:36:29.044Z,0.00
2023-01-03T05:37:28.973Z,0.00
2023-01-03T05:38:29.319Z,0.00
2023-01-03T05:39:29.207Z,0.00
2023-01-03T05:40:28.936Z,0.00
2023-01-03T05:41:28.927Z,0.00
2023-01-03T05:42:28.944Z,0.00
2023-01-03T05:43:28.933Z,0.00
2023-01-03T05:44:29.112Z,0.00
2023-01-03T05:45:28.874Z,0.00
2023-01-03T05:46:28.948Z,0.00
2023-01-03T05:47:28.877Z,0.00
2023-01-03T05:48:28.873Z,0.00
2023-01-03T05:49:28.843Z,0.00
2023-01-03T05:50:28.853Z,0.00
2023-01-03T05:51:28.805Z,0.00
2023-01-03T05:52:28.854Z,0.00
2023-01-03T05:53:28.799Z,0.00
2023-01-03T05:54:28.808Z,0.00
2023-01-03T05:55:28.812Z,0.00
2023-01-03T05:56:28.751Z,0.00
2023-01-03T05:57:35.051Z,0.00
2023-01-03T05:58:28.736Z,0.00
2023-01-03T05:59:28.736Z,0.00
2023-01-03T06:00:28.703Z,0.00
2023-01-03T06:01:28.854Z,0.00
2023-01-03T06:02:28.975Z,0.00
2023-01-03T06:03:28.684Z,0.00
2023-01-03T06:04:28.730Z,0.00
2023-01-03T06:05:28.660Z,0.00
2023-01-03T06:06:28.836Z,0.00
2023-01-03T06:07:28.637Z,0.00
2023-01-03T06:08:28.614Z,0.00
2023-01-03T06:09:28.636Z,0.00
2023-01-03T06:10:28.636Z,0.00
2023-01-03T06:11:28.625Z,0.00
2023-01-03T06:12:28.591Z,0.00
2023-01-03T06:13:28.549Z,0.00
2023-01-03T06:14:28.539Z,0.00
2023-01-03T06:15:28.530Z,0.00
2023-01-03T06:16:28.592Z,0.00
2023-01-03T06:17:28.560Z,0.00
2023-01-03T06:18:28.495Z,0.00
2023-01-03T06:19:28.481Z,0.00
2023-01-03T06:20:28.473Z,0.00
2023-01-03T06:21:28.456Z,0.00
2023-01-03T06:22:28.461Z,0.00
2023-01-03T06:23:28.485Z,0.00
2023-01-03T06:24:28.416Z,0.00
2023-01-03T06:25:28.421Z,0.00
2023-01-03T06:26:28.417Z,0.00
2023-01-03T06:27:28.386Z,0.00
2023-01-03T06:28:28.373Z,0.00
2023-01-03T06:29:28.363Z,0.00
2023-01-03T06:30:28.398Z,0.00
2023-01-03T06:31:28.429Z,0.00
2023-01-03T06:32:28.324Z,0.00
2023-01-03T06:33:28.316Z,0.00
2023-01-03T06:34:28.303Z,0.00
2023-01-03T06:35:28.288Z,0.00
2023-01-03T06:36:28.294Z,0.00
2023-01-03T06:37:28.286Z,0.00
2023-01-03T06:38:28.253Z,0.00
2023-01-03T06:39:28.247Z,0.00
2023-01-03T06:40:36.188Z,0.00
2023-01-03T06:41:28.220Z,0.00
2023-01-03T06:42:28.225Z,0.00
2023-01-03T06:43:28.206Z,0.00
2023-01-03T06:44:28.181Z,0.00
2023-01-03T06:45:28.180Z,0.00
2023-01-03T06:46:28.417Z,0.00
2023-01-03T06:47:28.145Z,0.00
2023-01-03T06:48:28.161Z,0.00
2023-01-03T06:49:28.529Z,0.00
2023-01-03T06:50:28.146Z,0.00
2023-01-03T06:51:28.101Z,0.00
2023-01-03T06:52:28.083Z,0.00
2023-01-03T06:53:28.074Z,0.00
2023-01-03T06:54:28.064Z,0.00
2023-01-03T06:55:28.061Z,0.00
2023-01-03T06:56:28.091Z,0.00
2023-01-03T06:57:28.075Z,0.00
2023-01-03T06:58:28.051Z,0.00
2023-01-03T06:59:28.005Z,0.00
2023-01-03T07:00:27.989Z,0.00
2023-01-03T07:01:28.359Z,0.00
2023-01-03T07:02:28.149Z,0.00
2023-01-03T07:03:27.983Z,0.00
2023-01-03T07:04:28.018Z,0.00
2023-01-03T07:05:28.136Z,0.00
2023-01-03T07:06:27.914Z,0.00
2023-01-03T07:07:27.946Z,0.00
2023-01-03T07:08:28.103Z,0.00
2023-01-03T07:09:27.905Z,0.00
2023-01-03T07:10:27.876Z,0.00
2023-01-03T07:11:27.867Z,5.63
2023-01-03T07:12:27.846Z,5.63
2023-01-03T07:13:27.833Z,5.63
2023-01-03T07:14:27.856Z,5.63
2023-01-03T07:15:28.023Z,5.63
2023-01-03T07:16:27.901Z,5.63
2023-01-03T07:17:28.006Z,5.63
2023-01-03T07:18:27.788Z,5.63
2023-01-03T07:19:27.789Z,5.63
2023-01-03T07:20:27.769Z,11.25
2023-01-03T07:21:27.751Z,11.25
2023-01-03T07:22:27.746Z,11.25
2023-01-03T07:23:27.729Z,11.25
2023-01-03T07:24:27.710Z,11.25
2023-01-03T07:25:27.690Z,11.25
2023-01-03T07:26:27.675Z,16.88
2023-01-03T07:27:27.674Z,16.88
2023-01-03T07:28:27.654Z,16.88
2023-01-03T07:29:27.637Z,16.88
2023-01-03T07:30:27.651Z,16.88
2023-01-03T07:31:27.685Z,22.50
2023-01-03T07:32:27.616Z,22.50
2023-01-03T07:33:27.602Z,22.50
2023-01-03T07:34:27.583Z,22.50
2023-01-03T07:35:27.570Z,22.50
2023-01-03T07:36:27.574Z,22.50
2023-01-03T07:37:27.545Z,28.13
2023-01-03T07:38:27.543Z,28.13
2023-01-03T07:39:27.517Z,28.13
2023-01-03T07:40:27.723Z,33.75
2023-01-03T07:41:27.497Z,33.75
2023-01-03T07:42:27.486Z,33.75
2023-01-03T07:43:27.469Z,33.75
2023-01-03T07:44:27.467Z,33.75
2023-01-03T07:45:27.446Z,33.75
2023-01-03T07:46:27.508Z,33.75
2023-01-03T07:47:27.429Z,33.75
2023-01-03T07:48:27.412Z,33.75
2023-01-03T07:49:27.397Z,39.38
2023-01-03T07:50:27.662Z,39.38
2023-01-03T07:51:27.370Z,45.00
2023-01-03T07:52:27.366Z,39.38
2023-01-03T07:53:27.348Z,50.63
2023-01-03T07:54:27.335Z,50.63
2023-01-03T07:55:27.527Z,45.00
2023-01-03T07:56:27.307Z,50.63
2023-01-03T07:57:27.296Z,56.25
2023-01-03T07:58:27.325Z,56.25
2023-01-03T07:59:27.279Z,56.25
2023-01-03T08:00:27.318Z,56.25
2023-01-03T08:01:27.363Z,56.25
2023-01-03T08:02:27.484Z,61.88
2023-01-03T08:03:27.224Z,61.88
2023-01-03T08:04:27.271Z,61.88
2023-01-03T08:05:27.268Z,67.50
2023-01-03T08:06:27.188Z,67.50
2023-01-03T08:07:27.180Z,67.50
2023-01-03T08:08:27.168Z,73.13
2023-01-03T08:09:27.362Z,78.75
2023-01-03T08:10:27.208Z,73.13
2023-01-03T08:11:27.135Z,73.13
2023-01-03T08:12:27.122Z,67.50
2023-01-03T08:13:27.117Z,67.50
2023-01-03T08:14:27.603Z,67.50
2023-01-03T08:15:27.092Z,67.50
2023-01-03T08:16:27.241Z,73.13
2023-01-03T08:17:27.076Z,73.13
2023-01-03T08:18:27.092Z,73.13
2023-01-03T08:19:27.043Z,73.13
2023-01-03T08:20:27.031Z,73.13
2023-01-03T08:21:27.026Z,73.13
2023-01-03T08:22:27.023Z,73.13
2023-01-03T08:23:27.008Z,78.75
2023-01-03T08:24:27.001Z,78.75
2023-01-03T08:25:26.981Z,78.75
2023-01-03T08:26:26.978Z,78.75
2023-01-03T08:27:27.167Z,84.38
2023-01-03T08:28:26.951Z,90.00
2023-01-03T08:29:27.148Z,90.00
2023-01-03T08:30:26.933Z,90.00
2023-01-03T08:31:26.958Z,95.63
2023-01-03T08:32:26.925Z,112.50
2023-01-03T08:33:26.902Z,112.50
2023-01-03T08:34:29.816Z,112.50
2023-01-03T08:35:26.928Z,118.13
2023-01-03T08:36:26.908Z,112.50
2023-01-03T08:37:26.865Z,118.13
2023-01-03T08:38:26.872Z,95.63
2023-01-03T08:39:26.850Z,101.25
2023-01-03T08:40:26.856Z,118.13
2023-01-03T08:41:26.845Z,118.13
2023-01-03T08:42:27.034Z,118.13
2023-01-03T08:43:26.872Z,129.38
2023-01-03T08:44:26.898Z,135.00
2023-01-03T08:45:26.881Z,135.00
2023-01-03T08:46:26.860Z,135.00
2023-01-03T08:47:26.840Z,129.38
2023-01-03T08:48:26.810Z,129.38
2023-01-03T08:49:26.793Z,129.38
2023-01-03T08:50:26.906Z,135.00
2023-01-03T08:51:27.000Z,135.00
2023-01-03T08:52:31.583Z,135.00
2023-01-03T08:53:26.796Z,135.00
2023-01-03T08:54:26.805Z,135.00
2023-01-03T08:55:26.736Z,135.00
2023-01-03T08:56:26.769Z,129.38
2023-01-03T08:57:26.765Z,129.38
2023-01-03T08:58:26.743Z,129.38
2023-01-03T08:59:26.750Z,129.38
2023-01-03T09:00:26.721Z,129.38
2023-01-03T09:01:26.896Z,129.38
2023-01-03T09:02:27.084Z,123.75
2023-01-03T09:03:26.901Z,123.75
2023-01-03T09:04:26.708Z,118.13
2023-01-03T09:05:26.700Z,118.13
2023-01-03T09:06:26.731Z,118.13
2023-01-03T09:07:26.708Z,123.75
2023-01-03T09:08:26.738Z,129.38
2023-01-03T09:09:26.776Z,135.00
2023-01-03T09:10:26.682Z,140.63
2023-01-03T09:11:26.709Z,146.25
2023-01-03T09:12:26.670Z,146.25
2023-01-03T09:13:26.697Z,140.63
2023-01-03T09:14:26.655Z,146.25
2023-01-03T09:15:26.637Z,151.88
2023-01-03T09:16:26.757Z,151.88
2023-01-03T09:17:26.667Z,151.88
2023-01-03T09:18:26.648Z,157.50
2023-01-03T09:19:26.700Z,163.13
2023-01-03T09:20:26.627Z,168.75
2023-01-03T09:21:27.231Z,168.75
2023-01-03T09:22:26.656Z,180.00
2023-01-03T09:23:26.657Z,185.63
2023-01-03T09:24:26.625Z,202.50
2023-01-03T09:25:29.288Z,236.25
2023-01-03T09:26:26.855Z,281.25
2023-01-03T09:27:26.655Z,635.63
2023-01-03T09:28:26.608Z,1130.63
2023-01-03T09:29:26.693Z,1282.50
2023-01-03T09:30:26.607Z,1327.50
2023-01-03T09:31:26.672Z,1355.63
2023-01-03T09:32:26.615Z,1366.88
2023-01-03T09:33:26.603Z,1378.13
2023-01-03T09:34:26.604Z,1355.63
2023-01-03T09:35:26.623Z,1299.38
2023-01-03T09:36:26.615Z,1248.75
2023-01-03T09:37:26.602Z,1220.63
2023-01-03T09:38:26.583Z,1226.25
2023-01-03T09:39:26.625Z,1243.13
2023-01-03T09:40:26.799Z,1254.38
2023-01-03T09:41:26.800Z,1276.88
2023-01-03T09:42:26.607Z,1299.38
2023-01-03T09:43:26.552Z,1288.13
2023-01-03T09:44:26.592Z,1231.88
2023-01-03T09:45:26.780Z,911.25
2023-01-03T09:46:26.585Z,466.88
2023-01-03T09:47:26.538Z,219.38
2023-01-03T09:48:26.558Z,208.13
2023-01-03T09:49:26.547Z,219.38
2023-01-03T09:50:38.837Z,253.13
2023-01-03T09:51:30.007Z,427.50
2023-01-03T09:52:26.541Z,815.63
2023-01-03T09:53:26.554Z,1158.75
2023-01-03T09:54:26.559Z,1203.75
2023-01-03T09:55:26.537Z,1198.13
2023-01-03T09:56:26.527Z,1186.88
2023-01-03T09:57:28.683Z,1192.50
2023-01-03T09:58:26.542Z,1231.88
2023-01-03T09:59:26.529Z,1299.38
2023-01-03T10:00:26.548Z,1333.13
2023-01-03T10:01:26.649Z,1316.25
2023-01-03T10:02:26.728Z,1305.00
2023-01-03T10:03:26.710Z,1282.50
2023-01-03T10:04:26.536Z,1254.38
2023-01-03T10:05:26.547Z,1237.50
2023-01-03T10:06:26.519Z,1175.63
2023-01-03T10:07:26.516Z,1119.38
2023-01-03T10:08:26.522Z,1102.50
2023-01-03T10:09:26.541Z,1091.25
2023-01-03T10:10:26.580Z,1108.13
2023-01-03T10:11:26.524Z,1164.38
2023-01-03T10:12:26.512Z,1226.25
2023-01-03T10:13:26.526Z,1231.88
2023-01-03T10:14:26.575Z,1186.88
2023-01-03T10:15:26.538Z,1158.75
2023-01-03T10:16:26.603Z,1147.50
2023-01-03T10:17:26.543Z,1141.88
2023-01-03T10:18:26.559Z,1136.25
2023-01-03T10:19:26.560Z,1108.13
2023-01-03T10:20:28.069Z,1068.75
2023-01-03T10:21:26.507Z,1057.50
2023-01-03T10:22:26.520Z,1074.38
2023-01-03T10:23:26.603Z,1074.38
2023-01-03T10:24:26.542Z,1085.63
2023-01-03T10:25:26.491Z,1096.88
2023-01-03T10:26:32.467Z,1085.63
2023-01-03T10:27:26.514Z,1091.25
2023-01-03T10:28:26.522Z,1091.25
2023-01-03T10:29:26.511Z,1051.88
2023-01-03T10:30:26.510Z,1029.38
2023-01-03T10:31:27.007Z,1023.75
2023-01-03T10:32:26.525Z,1068.75
2023-01-03T10:33:26.489Z,1136.25
2023-01-03T10:34:26.760Z,1125.00
2023-01-03T10:35:26.493Z,1068.75
2023-01-03T10:36:26.496Z,1012.50
2023-01-03T10:37:26.594Z,984.38
2023-01-03T10:38:26.501Z,984.38
2023-01-03T10:39:26.499Z,1012.50
2023-01-03T10:40:26.516Z,1023.75
2023-01-03T10:41:26.509Z,995.63
2023-01-03T10:42:26.730Z,973.13
2023-01-03T10:43:26.555Z,956.25
2023-01-03T10:44:26.484Z,922.50
2023-01-03T10:45:26.553Z,911.25
2023-01-03T10:46:26.607Z,877.50
2023-01-03T10:47:26.479Z,832.50
2023-01-03T10:48:26.539Z,821.25
2023-01-03T10:49:28.869Z,838.13
2023-01-03T10:50:26.502Z,855.00
2023-01-03T10:51:26.487Z,855.00
2023-01-03T10:52:26.484Z,832.50
2023-01-03T10:53:26.496Z,838.13
2023-01-03T10:54:26.502Z,877.50
2023-01-03T10:55:26.667Z,843.75
2023-01-03T10:56:26.473Z,765.00
2023-01-03T10:57:26.478Z,759.38
2023-01-03T10:58:32.160Z,770.63
2023-01-03T10:59:26.482Z,793.13
2023-01-03T11:00:26.521Z,838.13
2023-01-03T11:01:26.652Z,832.50
2023-01-03T11:02:26.644Z,781.88
2023-01-03T11:03:26.594Z,736.88
2023-01-03T11:04:26.464Z,720.00
2023-01-03T11:05:26.511Z,736.88
2023-01-03T11:06:26.428Z,753.75
2023-01-03T11:07:26.440Z,742.50
2023-01-03T11:08:26.629Z,680.63
2023-01-03T11:09:26.658Z,630.00
2023-01-03T11:10:26.431Z,624.38
2023-01-03T11:11:26.499Z,675.00
2023-01-03T11:12:26.476Z,708.75
2023-01-03T11:13:26.447Z,691.88
2023-01-03T11:14:26.439Z,646.88
2023-01-03T11:15:26.432Z,596.25
2023-01-03T11:16:26.528Z,579.38
2023-01-03T11:17:26.434Z,596.25
2023-01-03T11:18:26.408Z,579.38
2023-01-03T11:19:26.695Z,590.63
2023-01-03T11:20:26.437Z,579.38
2023-01-03T11:21:26.412Z,556.88
2023-01-03T11:22:27.943Z,523.13
2023-01-03T11:23:26.408Z,517.50
2023-01-03T11:24:26.396Z,528.75
2023-01-03T11:25:26.592Z,511.88
2023-01-03T11:26:26.603Z,483.75
2023-01-03T11:27:26.399Z,472.50
2023-01-03T11:28:26.614Z,455.63
2023-01-03T11:29:26.388Z,438.75
2023-01-03T11:30:26.473Z,455.63
2023-01-03T11:31:26.501Z,450.00
2023-01-03T11:32:26.434Z,399.38
2023-01-03T11:33:29.534Z,393.75
2023-01-03T11:34:26.392Z,433.13
2023-01-03T11:35:26.406Z,421.88
2023-01-03T11:36:26.377Z,399.38
2023-01-03T11:37:26.389Z,393.75
2023-01-03T11:38:26.382Z,371.25
2023-01-03T11:39:27.255Z,360.00
2023-01-03T11:40:26.542Z,343.13
2023-01-03T11:41:26.337Z,230.63
2023-01-03T11:42:26.349Z,140.63
2023-01-03T11:43:26.334Z,118.13
2023-01-03T11:44:26.329Z,118.13
2023-01-03T11:45:26.325Z,118.13
2023-01-03T11:46:26.444Z,112.50
2023-01-03T11:47:26.328Z,112.50
2023-01-03T11:48:26.309Z,112.50
2023-01-03T11:49:26.384Z,112.50
2023-01-03T11:50:26.297Z,112.50
2023-01-03T11:51:26.287Z,112.50
2023-01-03T11:52:26.285Z,112.50
2023-01-03T11:53:26.265Z,112.50
2023-01-03T11:54:26.266Z,112.50
2023-01-03T11:55:26.272Z,112.50
2023-01-03T11:56:26.291Z,112.50
2023-01-03T11:57:26.264Z,112.50
2023-01-03T11:58:26.254Z,112.50
2023-01-03T11:59:26.448Z,112.50
2023-01-03T12:00:26.230Z,112.50
2023-01-03T12:01:26.351Z,112.50
2023-01-03T12:02:26.513Z,112.50
2023-01-03T12:03:26.528Z,112.50
2023-01-03T12:04:26.312Z,123.75
2023-01-03T12:05:26.202Z,146.25
2023-01-03T12:06:28.881Z,168.75
2023-01-03T12:08:26.210Z,157.50
2023-01-03T12:09:26.256Z,140.63
2023-01-03T12:10:26.187Z,135.00
2023-01-03T12:11:26.163Z,140.63
2023-01-03T12:12:26.149Z,129.38
2023-01-03T12:13:29.667Z,112.50
2023-01-03T12:14:26.348Z,101.25
2023-01-03T12:15:26.178Z,95.63
2023-01-03T12:16:26.538Z,73.13
2023-01-03T12:17:26.161Z,95.63
2023-01-03T12:18:26.182Z,90.00
2023-01-03T12:19:26.141Z,95.63
2023-01-03T12:20:26.159Z,95.63
2023-01-03T12:21:26.122Z,90.00
2023-01-03T12:22:26.097Z,67.50
2023-01-03T12:23:26.088Z,67.50
2023-01-03T12:24:26.111Z,61.88
2023-01-03T12:25:26.323Z,61.88
2023-01-03T12:26:26.075Z,73.13
2023-01-03T12:27:26.064Z,67.50
2023-01-03T12:28:26.038Z,61.88
2023-01-03T12:29:26.041Z,67.50
2023-01-03T12:30:26.034Z,84.38
2023-01-03T12:31:31.257Z,84.38
2023-01-03T12:32:26.001Z,67.50
2023-01-03T12:33:25.995Z,78.75
2023-01-03T12:34:26.035Z,61.88
2023-01-03T12:35:26.184Z,78.75
2023-01-03T12:36:25.983Z,78.75
2023-01-03T12:37:26.173Z,84.38
2023-01-03T12:38:25.995Z,84.38
2023-01-03T12:39:32.528Z,78.75
2023-01-03T12:40:25.941Z,67.50
2023-01-03T12:41:25.936Z,78.75
2023-01-03T12:42:25.930Z,78.75
2023-01-03T12:43:26.124Z,78.75
2023-01-03T12:44:25.914Z,78.75
2023-01-03T12:45:31.112Z,78.75
2023-01-03T12:46:25.957Z,78.75
2023-01-03T12:47:25.883Z,78.75
2023-01-03T12:48:25.884Z,78.75
2023-01-03T12:49:25.877Z,78.75
2023-01-03T12:50:25.887Z,78.75
2023-01-03T12:51:25.876Z,73.13
2023-01-03T12:52:25.840Z,73.13
2023-01-03T12:53:25.852Z,73.13
2023-01-03T12:54:25.838Z,73.13
2023-01-03T12:55:25.807Z,73.13
2023-01-03T12:56:25.808Z,73.13
2023-01-03T12:57:25.807Z,73.13
2023-01-03T12:58:25.789Z,73.13